Time;durP1;ratioP1;P1;durP2;ratioP2;P2;SDS_P1;SDS_P2;PMS_P1;PMS_P2;Temp;Humidity;BMP_temperature;BMP_pressure;BME280_temperature;BME280_humidity;BME280_pressure;Samples;Min_cycle;Max_cycle;Signal;HPM_P1;HPM_P2
2021/05/05 00:00:25;;;;;;;15.40;3.50;;;6.40;96.40;;;;;;5066053;28;20113;-40
2021/05/05 00:02:55;;;;;;;18.02;2.88;;;6.40;96.30;;;;;;5062995;28;20068;-39
2021/05/05 00:05:24;;;;;;;18.45;2.95;;;6.40;96.20;;;;;;5067906;28;20123;-39
2021/05/05 00:07:50;;;;;;;14.52;2.88;;;6.40;96.30;;;;;;5065558;28;20048;-39
2021/05/05 00:10:18;;;;;;;16.95;3.63;;;6.50;96.30;;;;;;5066572;28;20052;-41
2021/05/05 00:12:46;;;;;;;20.05;4.00;;;6.50;96.30;;;;;;5066221;28;20139;-41
2021/05/05 00:15:17;;;;;;;16.15;3.15;;;6.50;96.30;;;;;;5066123;28;20056;-42
2021/05/05 00:17:46;;;;;;;17.67;2.65;;;6.50;96.20;;;;;;5065475;28;20423;-40
2021/05/05 00:20:14;;;;;;;16.33;2.83;;;6.50;95.90;;;;;;5048423;28;20067;-40
2021/05/05 00:22:40;;;;;;;15.18;3.10;;;6.40;95.20;;;;;;5066034;28;20056;-40
2021/05/05 00:25:08;;;;;;;8.63;2.00;;;6.50;94.70;;;;;;5080574;28;20078;-39
2021/05/05 00:27:34;;;;;;;13.50;3.10;;;6.50;94.60;;;;;;5067272;28;20049;-40
2021/05/05 00:30:10;;;;;;;9.85;1.85;;;6.40;95.00;;;;;;5066120;28;20177;-39
2021/05/05 00:32:36;;;;;;;11.20;2.65;;;6.50;94.90;;;;;;5065759;28;20571;-40
2021/05/05 00:35:06;;;;;;;8.48;2.20;;;6.50;95.20;;;;;;5065498;28;20045;-41
2021/05/05 00:37:36;;;;;;;11.73;2.40;;;6.50;95.00;;;;;;5047834;28;20048;-40
2021/05/05 00:40:04;;;;;;;11.63;2.42;;;6.40;95.10;;;;;;5066391;28;20151;-40
2021/05/05 00:42:33;;;;;;;9.65;2.10;;;6.40;95.10;;;;;;5065847;28;20064;-40
2021/05/05 00:45:02;;;;;;;8.00;2.33;;;6.40;95.00;;;;;;5067281;28;20040;-39
2021/05/05 00:47:29;;;;;;;9.00;2.63;;;6.30;95.20;;;;;;5065036;28;20170;-39
2021/05/05 00:49:58;;;;;;;16.77;2.70;;;6.20;95.20;;;;;;5066564;28;20076;-39
2021/05/05 00:52:29;;;;;;;12.05;2.38;;;6.20;94.70;;;;;;5066107;28;20044;-39
2021/05/05 00:54:56;;;;;;;14.05;2.72;;;6.20;94.70;;;;;;5065386;28;20484;-39
2021/05/05 00:57:28;;;;;;;13.52;2.78;;;6.30;94.80;;;;;;5075418;28;20044;-39
2021/05/05 00:59:54;;;;;;;16.77;2.63;;;6.30;95.00;;;;;;5065126;28;20045;-39
2021/05/05 01:02:21;;;;;;;14.55;3.40;;;6.30;95.20;;;;;;5064898;28;20052;-39
2021/05/05 01:04:51;;;;;;;10.95;2.90;;;6.30;95.10;;;;;;5066027;28;20555;-39
2021/05/05 01:07:18;;;;;;;15.50;3.03;;;6.30;95.10;;;;;;5076027;28;20052;-40
2021/05/05 01:09:46;;;;;;;11.82;2.95;;;6.30;95.10;;;;;;5053280;28;20055;-39
2021/05/05 01:12:13;;;;;;;14.07;3.17;;;6.30;95.20;;;;;;5085622;28;20048;-39
2021/05/05 01:14:42;;;;;;;10.27;2.63;;;6.30;95.40;;;;;;5085541;28;20048;-39
2021/05/05 01:17:09;;;;;;;20.92;2.88;;;6.30;95.30;;;;;;5053678;28;20051;-40
2021/05/05 01:19:36;;;;;;;10.77;2.72;;;6.30;95.80;;;;;;5071221;28;20048;-40
2021/05/05 01:22:05;;;;;;;11.48;2.55;;;6.30;95.60;;;;;;5065107;28;20091;-40
2021/05/05 01:24:34;;;;;;;16.40;2.75;;;6.30;95.90;;;;;;5065217;28;20118;-40
2021/05/05 01:27:03;;;;;;;10.25;2.85;;;6.20;96.10;;;;;;5063634;28;20059;-40
2021/05/05 01:29:32;;;;;;;11.93;2.58;;;6.20;96.10;;;;;;5065800;28;20073;-39
2021/05/05 01:32:01;;;;;;;12.88;2.78;;;6.20;95.60;;;;;;5064960;28;20049;-40
2021/05/05 01:34:27;;;;;;;13.57;3.10;;;6.20;95.60;;;;;;5065036;28;20159;-39
2021/05/05 01:36:54;;;;;;;9.88;2.65;;;6.10;95.80;;;;;;5047538;28;20053;-39
2021/05/05 01:39:21;;;;;;;11.20;2.78;;;6.10;95.40;;;;;;5057811;28;20056;-40
2021/05/05 01:41:50;;;;;;;12.90;2.55;;;6.10;95.70;;;;;;5047795;28;20465;-39
2021/05/05 01:44:33;;;;;;;14.07;3.10;;;6.10;95.00;;;;;;5042946;28;20098;-39
2021/05/05 01:47:03;;;;;;;12.32;3.03;;;6.10;94.90;;;;;;5039290;28;20452;-39
2021/05/05 01:49:30;;;;;;;10.52;2.30;;;6.00;94.80;;;;;;5038232;28;20045;-39
2021/05/05 01:52:02;;;;;;;11.68;2.35;;;6.00;94.80;;;;;;5024434;28;20061;-39
2021/05/05 01:54:29;;;;;;;11.75;2.67;;;6.00;94.70;;;;;;5025591;28;20058;-39
2021/05/05 01:57:31;;;;;;;15.63;2.88;;;5.90;95.00;;;;;;5023706;28;20057;-39
2021/05/05 02:00:08;;;;;;;12.80;3.17;;;5.90;95.20;;;;;;5031468;28;20060;-40
2021/05/05 02:02:48;;;;;;;12.77;2.50;;;5.80;95.40;;;;;;5029795;28;20087;-39
2021/05/05 02:05:25;;;;;;;11.85;3.00;;;5.80;95.60;;;;;;5023067;28;20506;-39
2021/05/05 02:07:59;;;;;;;13.65;2.70;;;5.80;95.60;;;;;;5023509;28;20051;-40
2021/05/05 02:10:26;;;;;;;12.82;3.00;;;5.80;95.80;;;;;;5026029;28;20045;-39
2021/05/05 02:12:53;;;;;;;10.68;2.45;;;5.90;96.00;;;;;;5044887;28;20057;-40
2021/05/05 02:15:24;;;;;;;12.75;3.05;;;5.90;95.90;;;;;;5043582;28;20088;-39
2021/05/05 02:17:54;;;;;;;18.60;3.00;;;6.00;95.80;;;;;;5028768;28;20049;-40
2021/05/05 02:20:24;;;;;;;14.00;2.92;;;6.00;95.90;;;;;;5027143;28;20053;-40
2021/05/05 02:22:51;;;;;;;11.00;2.97;;;6.00;95.70;;;;;;5045207;28;20144;-39
2021/05/05 02:25:17;;;;;;;11.63;2.67;;;6.00;95.30;;;;;;5045078;28;20522;-39
2021/05/05 02:27:49;;;;;;;12.27;3.38;;;6.00;94.90;;;;;;5046898;28;20156;-39
2021/05/05 02:30:23;;;;;;;8.98;2.25;;;5.90;94.90;;;;;;5045830;28;20057;-40
2021/05/05 02:32:53;;;;;;;14.07;2.75;;;5.90;94.70;;;;;;5047230;28;20044;-39
2021/05/05 02:35:22;;;;;;;10.52;2.65;;;5.80;94.80;;;;;;5044584;28;20053;-39
2021/05/05 02:37:54;;;;;;;11.18;2.80;;;5.80;94.70;;;;;;5046748;28;20739;-39
2021/05/05 02:40:20;;;;;;;7.15;2.13;;;5.80;95.00;;;;;;5048748;28;20133;-40
2021/05/05 02:42:48;;;;;;;10.48;3.22;;;5.80;95.10;;;;;;5045708;28;20066;-39
2021/05/05 02:45:14;;;;;;;14.70;2.70;;;5.80;95.10;;;;;;5059446;28;20053;-40
2021/05/05 02:47:41;;;;;;;13.63;2.92;;;5.80;95.60;;;;;;5061733;28;20454;-40
2021/05/05 02:50:10;;;;;;;13.13;2.80;;;5.90;95.60;;;;;;5067321;28;20055;-39
2021/05/05 02:52:36;;;;;;;9.07;2.30;;;5.80;95.30;;;;;;5068185;28;20373;-40
2021/05/05 02:55:04;;;;;;;9.98;2.88;;;5.70;95.30;;;;;;5069640;28;20052;-40
2021/05/05 02:57:32;;;;;;;10.68;2.63;;;5.70;95.60;;;;;;5073455;28;20055;-40
2021/05/05 02:59:59;;;;;;;15.77;2.55;;;5.70;95.80;;;;;;5067752;28;20051;-40
2021/05/05 03:02:27;;;;;;;13.63;2.90;;;5.70;95.80;;;;;;5067099;28;20060;-40
2021/05/05 03:04:56;;;;;;;18.67;3.17;;;5.70;95.80;;;;;;5079804;28;20055;-42
2021/05/05 03:07:26;;;;;;;15.00;3.80;;;5.70;96.00;;;;;;5062661;28;20068;-40
2021/05/05 03:09:55;;;;;;;13.20;2.67;;;5.70;96.10;;;;;;5066291;28;20045;-39
2021/05/05 03:12:24;;;;;;;17.17;4.07;;;5.70;96.20;;;;;;5048769;28;20063;-41
2021/05/05 03:14:52;;;;;;;18.17;3.63;;;5.70;96.40;;;;;;5070438;28;20040;-38
2021/05/05 03:17:23;;;;;;;13.73;3.42;;;5.70;96.30;;;;;;5067315;28;20044;-40
2021/05/05 03:19:50;;;;;;;13.93;3.28;;;5.70;96.20;;;;;;5066678;28;20636;-39
2021/05/05 03:22:19;;;;;;;20.90;4.20;;;5.80;96.00;;;;;;5066937;28;20052;-40
2021/05/05 03:24:48;;;;;;;16.58;3.28;;;5.90;96.00;;;;;;5067581;28;20411;-40
2021/05/05 03:27:16;;;;;;;13.98;3.28;;;5.90;96.00;;;;;;5048257;28;20059;-40
2021/05/05 03:29:45;;;;;;;15.20;3.58;;;5.90;96.10;;;;;;5066911;28;20056;-41
2021/05/05 03:32:12;;;;;;;18.90;4.45;;;5.90;96.20;;;;;;5048640;28;20053;-40
2021/05/05 03:34:38;;;;;;;14.43;3.17;;;5.90;95.90;;;;;;5066370;28;20079;-38
2021/05/05 03:37:05;;;;;;;15.73;3.80;;;5.90;95.70;;;;;;5080114;28;20055;-40
2021/05/05 03:39:33;;;;;;;12.18;3.33;;;5.90;95.60;;;;;;5070968;28;20771;-40
2021/05/05 03:42:02;;;;;;;16.98;3.78;;;5.80;95.70;;;;;;5067112;28;20086;-39
2021/05/05 03:44:29;;;;;;;19.05;3.85;;;5.80;95.80;;;;;;5048654;28;20139;-39
2021/05/05 03:46:59;;;;;;;19.42;4.15;;;5.70;95.90;;;;;;5067172;28;20044;-40
2021/05/05 03:49:28;;;;;;;14.23;3.55;;;5.70;95.40;;;;;;5066830;28;20757;-40
2021/05/05 03:51:55;;;;;;;11.93;3.03;;;5.70;95.10;;;;;;5048510;28;20151;-39
2021/05/05 03:54:24;;;;;;;18.33;3.35;;;5.70;94.80;;;;;;5066367;28;20052;-40
2021/05/05 03:56:52;;;;;;;13.90;3.47;;;5.70;94.30;;;;;;5067895;28;20072;-39
2021/05/05 03:59:18;;;;;;;12.75;3.28;;;5.80;93.90;;;;;;5083896;28;20475;-40
2021/05/05 04:01:48;;;;;;;8.98;3.42;;;5.70;94.00;;;;;;5066095;28;20139;-40
2021/05/05 04:04:17;;;;;;;12.25;2.38;;;5.70;93.80;;;;;;5065965;28;20083;-39
2021/05/05 04:06:45;;;;;;;13.98;3.33;;;5.80;94.00;;;;;;5066088;28;20129;-39
2021/05/05 04:09:14;;;;;;;13.63;2.50;;;5.70;94.20;;;;;;5081325;28;20062;-39
2021/05/05 04:11:40;;;;;;;13.27;3.38;;;5.80;94.60;;;;;;5068336;28;20048;-40
2021/05/05 04:14:07;;;;;;;18.35;3.33;;;5.80;95.10;;;;;;5068292;28;20059;-39
2021/05/05 04:16:39;;;;;;;24.25;4.53;;;5.80;95.40;;;;;;5066384;28;20048;-40
2021/05/05 04:19:08;;;;;;;20.02;4.13;;;5.80;95.90;;;;;;5067369;28;20045;-40
2021/05/05 04:21:34;;;;;;;22.70;4.78;;;5.70;96.10;;;;;;5070718;28;20040;-40
2021/05/05 04:24:01;;;;;;;21.55;4.68;;;5.70;96.40;;;;;;5087371;28;20055;-41
2021/05/05 04:26:30;;;;;;;14.40;3.35;;;5.70;96.30;;;;;;5086870;28;20044;-40
2021/05/05 04:28:58;;;;;;;14.75;3.42;;;5.70;96.20;;;;;;5069181;28;20059;-40
2021/05/05 04:31:26;;;;;;;16.70;2.75;;;5.80;95.60;;;;;;5081730;28;20047;-40
2021/05/05 04:33:55;;;;;;;18.88;3.45;;;5.80;95.60;;;;;;5065728;28;20139;-40
2021/05/05 04:36:23;;;;;;;13.95;3.35;;;5.80;95.60;;;;;;5066198;28;20048;-40
2021/05/05 04:38:58;;;;;;;17.40;3.88;;;5.90;95.30;;;;;;5065668;28;20079;-40
2021/05/05 04:41:29;;;;;;;19.20;4.00;;;5.90;94.80;;;;;;5066596;28;20052;-40
2021/05/05 04:44:00;;;;;;;16.70;4.10;;;5.80;94.80;;;;;;5066686;28;20099;-40
2021/05/05 04:46:29;;;;;;;16.08;4.18;;;5.80;94.60;;;;;;5064835;28;20052;-40
2021/05/05 04:48:58;;;;;;;9.57;2.60;;;5.80;94.50;;;;;;5065724;28;20048;-40
2021/05/05 04:51:26;;;;;;;11.23;2.90;;;5.80;94.70;;;;;;5065378;28;20555;-40
2021/05/05 04:53:57;;;;;;;17.58;2.85;;;5.80;94.60;;;;;;5075383;28;20393;-40
2021/05/05 04:56:25;;;;;;;13.30;3.85;;;5.80;94.80;;;;;;5066927;28;20709;-40
2021/05/05 04:58:54;;;;;;;14.23;3.13;;;5.80;94.80;;;;;;5047476;28;20086;-40
2021/05/05 05:01:20;;;;;;;23.27;4.00;;;5.90;94.80;;;;;;5069294;28;20067;-40
2021/05/05 05:03:46;;;;;;;16.13;3.90;;;5.90;94.70;;;;;;5067380;28;20080;-40
2021/05/05 05:06:16;;;;;;;16.45;3.20;;;6.10;94.80;;;;;;5085776;28;20093;-39
2021/05/05 05:08:45;;;;;;;17.70;3.55;;;6.20;94.10;;;;;;5085944;28;20138;-40
2021/05/05 05:11:11;;;;;;;12.88;3.10;;;6.40;93.80;;;;;;5090025;28;20450;-40
2021/05/05 05:13:39;;;;;;;17.40;3.50;;;6.60;93.70;;;;;;5082006;28;20542;-39
2021/05/05 05:16:07;;;;;;;14.35;3.10;;;6.60;93.70;;;;;;5072557;28;20056;-40
2021/05/05 05:18:37;;;;;;;16.95;3.78;;;6.70;93.00;;;;;;5063753;28;20127;-39
2021/05/05 05:21:04;;;;;;;15.80;3.45;;;6.70;92.50;;;;;;5065952;28;20044;-39
2021/05/05 05:23:32;;;;;;;21.52;3.47;;;7.00;92.80;;;;;;5059819;28;20049;-39
2021/05/05 05:26:01;;;;;;;14.82;3.70;;;7.00;92.20;;;;;;5064771;28;20130;-39
2021/05/05 05:28:28;;;;;;;54.83;35.10;;;7.10;91.80;;;;;;5072605;28;20043;-41
2021/05/05 05:30:57;;;;;;;42.00;26.83;;;7.00;91.60;;;;;;5062785;28;20066;-40
2021/05/05 05:33:25;;;;;;;39.92;22.50;;;7.00;92.30;;;;;;5059259;28;20947;-39
2021/05/05 05:35:54;;;;;;;17.85;6.93;;;6.90;92.40;;;;;;5061234;28;20044;-40
2021/05/05 05:38:23;;;;;;;25.27;9.95;;;7.00;92.00;;;;;;5054598;28;20048;-38
2021/05/05 05:40:53;;;;;;;13.73;4.60;;;7.00;92.00;;;;;;5065146;28;20049;-38
2021/05/05 05:43:26;;;;;;;17.83;5.93;;;7.10;91.50;;;;;;5063855;28;20083;-39
2021/05/05 05:45:55;;;;;;;21.25;5.30;;;7.10;91.60;;;;;;5064188;28;20052;-39
2021/05/05 05:48:24;;;;;;;21.90;5.78;;;7.10;91.10;;;;;;5021984;28;20053;-39
2021/05/05 05:50:53;;;;;;;17.85;3.80;;;7.20;91.50;;;;;;5055903;28;20052;-41
2021/05/05 05:53:21;;;;;;;15.20;4.55;;;7.10;91.60;;;;;;5070030;28;20056;-39
2021/05/05 05:55:53;;;;;;;49.10;29.10;;;7.20;90.90;;;;;;5068300;28;20122;-40
2021/05/05 05:58:21;;;;;;;42.67;23.65;;;7.30;91.40;;;;;;5068603;28;20583;-40
2021/05/05 06:00:50;;;;;;;15.70;5.20;;;7.30;91.00;;;;;;5069465;28;20054;-40
2021/05/05 06:03:19;;;;;;;22.80;5.57;;;7.20;89.50;;;;;;5067301;28;20068;-40
2021/05/05 06:05:48;;;;;;;20.08;5.15;;;7.20;90.30;;;;;;5068267;28;20105;-40
2021/05/05 06:08:16;;;;;;;12.02;3.60;;;7.30;89.50;;;;;;5068217;28;20567;-40
2021/05/05 06:10:46;;;;;;;16.60;4.00;;;7.30;89.90;;;;;;5064576;28;20140;-39
2021/05/05 06:13:15;;;;;;;15.70;4.93;;;7.30;88.90;;;;;;5052981;28;20135;-40
2021/05/05 06:15:44;;;;;;;15.98;5.95;;;7.50;89.70;;;;;;5071997;28;20044;-39
2021/05/05 06:18:11;;;;;;;13.38;5.05;;;7.50;87.90;;;;;;5072237;28;20052;-39
2021/05/05 06:20:42;;;;;;;21.48;8.38;;;7.40;86.50;;;;;;5068256;28;20036;-39
2021/05/05 06:23:08;;;;;;;16.25;5.90;;;7.50;87.60;;;;;;5069243;28;20067;-39
2021/05/05 06:25:35;;;;;;;16.80;3.95;;;7.60;87.40;;;;;;5069890;28;20158;-39
2021/05/05 06:28:06;;;;;;;15.75;4.00;;;7.60;87.60;;;;;;5074588;28;20539;-39
2021/05/05 06:30:34;;;;;;;13.13;2.80;;;7.60;86.50;;;;;;5084393;28;20094;-39
2021/05/05 06:33:03;;;;;;;13.43;3.13;;;7.60;86.90;;;;;;5067798;28;20097;-39
2021/05/05 06:35:29;;;;;;;14.40;3.65;;;7.60;86.20;;;;;;5075712;28;20055;-38
2021/05/05 06:37:58;;;;;;;18.35;2.88;;;7.80;87.30;;;;;;5067714;28;20803;-40
2021/05/05 06:40:25;;;;;;;12.45;3.08;;;7.80;86.70;;;;;;5069158;28;20143;-40
2021/05/05 06:42:57;;;;;;;9.82;2.80;;;8.00;86.90;;;;;;5069067;28;20094;-39
2021/05/05 06:45:23;;;;;;;12.77;3.28;;;8.10;84.90;;;;;;5067396;28;20504;-40
2021/05/05 06:47:54;;;;;;;22.45;11.32;;;8.30;85.00;;;;;;5068416;28;20065;-39
2021/05/05 06:50:23;;;;;;;23.73;10.88;;;8.20;82.30;;;;;;5072829;28;20724;-40
2021/05/05 06:52:52;;;;;;;19.65;11.23;;;8.30;84.20;;;;;;5067859;28;20098;-40
2021/05/05 06:55:21;;;;;;;10.90;3.03;;;8.50;84.60;;;;;;5071733;28;20049;-40
2021/05/05 06:57:48;;;;;;;12.38;2.95;;;8.50;82.90;;;;;;5066214;28;20044;-41
2021/05/05 07:00:17;;;;;;;15.20;3.90;;;8.50;81.50;;;;;;5066418;28;20146;-40
2021/05/05 07:02:43;;;;;;;15.98;2.92;;;8.50;80.30;;;;;;5065977;28;20060;-38
2021/05/05 07:05:13;;;;;;;16.40;4.03;;;8.50;81.40;;;;;;5048883;28;20068;-41
2021/05/05 07:07:39;;;;;;;13.40;3.38;;;8.50;81.70;;;;;;5059742;28;20046;-39
2021/05/05 07:10:06;;;;;;;12.85;2.85;;;8.50;81.40;;;;;;5067109;28;20408;-38
2021/05/05 07:12:33;;;;;;;13.07;2.95;;;8.40;81.60;;;;;;5047397;28;20048;-39
2021/05/05 07:14:59;;;;;;;13.38;2.60;;;8.40;83.30;;;;;;5075499;28;20052;-39
2021/05/05 07:17:25;;;;;;;11.88;3.70;;;8.40;83.20;;;;;;5069015;28;20052;-39
2021/05/05 07:19:53;;;;;;;11.40;2.58;;;8.50;81.80;;;;;;5067111;28;20465;-39
2021/05/05 07:22:20;;;;;;;10.02;2.65;;;9.00;82.60;;;;;;5065714;28;20060;-39
2021/05/05 07:24:48;;;;;;;33.97;21.15;;;9.20;81.20;;;;;;5068015;28;20173;-38
2021/05/05 07:27:15;;;;;;;20.20;12.45;;;9.40;80.10;;;;;;5069619;28;20063;-39
2021/05/05 07:29:41;;;;;;;22.45;11.07;;;9.60;79.90;;;;;;5067324;28;20044;-39
2021/05/05 07:32:13;;;;;;;16.10;6.22;;;10.00;81.70;;;;;;5050422;28;20134;-39
2021/05/05 07:34:41;;;;;;;12.68;2.95;;;9.70;78.30;;;;;;5066163;28;20048;-39
2021/05/05 07:37:15;;;;;;;12.27;3.95;;;9.80;78.70;;;;;;5067575;28;20049;-39
2021/05/05 07:48:07;;;;;;;66.97;50.40;;;9.90;80.20;;;;;;5064549;28;20799;-39
2021/05/05 07:50:34;;;;;;;14.00;3.55;;;9.70;81.00;;;;;;5074727;28;20485;-39
2021/05/05 07:53:02;;;;;;;14.15;4.10;;;9.40;83.20;;;;;;5065954;28;20056;-39
2021/05/05 07:55:28;;;;;;;17.45;4.30;;;9.20;82.60;;;;;;5048438;28;20045;-39
2021/05/05 07:57:57;;;;;;;17.05;4.00;;;8.90;83.70;;;;;;5067659;28;20044;-39
2021/05/05 08:00:26;;;;;;;16.30;3.58;;;8.80;84.50;;;;;;5066603;28;20126;-39
2021/05/05 08:02:52;;;;;;;14.27;3.08;;;8.80;84.40;;;;;;5074055;28;20408;-39
2021/05/05 08:05:21;;;;;;;13.43;3.03;;;8.80;83.70;;;;;;5066087;28;20503;-39
2021/05/05 08:07:50;;;;;;;17.70;3.72;;;8.90;82.90;;;;;;5048428;28;20078;-39
2021/05/05 08:10:18;;;;;;;18.95;4.72;;;8.60;86.30;;;;;;5073871;28;20530;-38
2021/05/05 08:12:47;;;;;;;14.52;3.30;;;8.20;90.00;;;;;;5085096;28;20151;-39
2021/05/05 08:15:17;;;;;;;11.10;3.03;;;8.00;90.40;;;;;;5086941;28;20122;-38
2021/05/05 08:17:44;;;;;;;11.38;2.88;;;8.10;90.60;;;;;;5077050;28;20135;-39
2021/05/05 08:20:10;;;;;;;9.98;2.90;;;8.10;90.70;;;;;;5066906;28;20488;-39
2021/05/05 08:22:39;;;;;;;12.52;3.05;;;8.30;91.20;;;;;;5065916;28;20427;-39
2021/05/05 08:25:08;;;;;;;10.30;2.50;;;8.90;90.30;;;;;;5065191;28;20371;-39
2021/05/05 08:27:35;;;;;;;11.93;2.90;;;9.60;90.10;;;;;;5068458;28;20918;-40
2021/05/05 08:30:02;;;;;;;14.02;3.15;;;9.80;86.00;;;;;;5086583;28;20050;-40
2021/05/05 08:32:28;;;;;;;13.00;2.58;;;10.30;87.70;;;;;;5067785;28;20156;-39
2021/05/05 08:34:58;;;;;;;11.05;2.80;;;10.20;82.80;;;;;;5064631;28;20049;-39
2021/05/05 08:37:24;;;;;;;11.82;2.88;;;9.90;81.80;;;;;;5070843;28;20133;-40
2021/05/05 08:39:53;;;;;;;13.15;2.83;;;9.70;82.60;;;;;;5069061;28;20052;-40
2021/05/05 08:42:19;;;;;;;13.63;3.05;;;9.20;85.50;;;;;;5066116;28;20063;-40
2021/05/05 08:44:47;;;;;;;7.28;1.83;;;8.00;90.50;;;;;;5064098;28;20048;-41
2021/05/05 08:47:17;;;;;;;10.07;1.88;;;7.30;91.50;;;;;;5064946;28;20055;-42
2021/05/05 08:49:44;;;;;;;13.32;6.10;;;7.10;93.30;;;;;;5047842;28;20052;-39
2021/05/05 08:52:11;;;;;;;8.88;2.85;;;7.20;93.40;;;;;;5065442;28;20131;-39
2021/05/05 08:54:37;;;;;;;16.75;9.07;;;7.50;93.50;;;;;;5069603;28;20098;-39
2021/05/05 08:57:04;;;;;;;10.02;2.08;;;7.80;93.70;;;;;;5066348;28;20134;-39
2021/05/05 08:59:32;;;;;;;8.95;3.47;;;8.10;93.20;;;;;;5066186;28;20489;-39
2021/05/05 09:02:00;;;;;;;9.20;2.10;;;8.40;91.70;;;;;;5062835;28;20074;-39
2021/05/05 09:04:26;;;;;;;7.40;2.50;;;8.30;91.10;;;;;;5074631;28;20083;-39
2021/05/05 09:07:00;;;;;;;7.60;1.80;;;8.40;90.90;;;;;;5065778;28;20049;-39
2021/05/05 09:09:44;;;;;;;6.25;1.60;;;8.60;91.10;;;;;;5061400;28;20094;-39
2021/05/05 09:12:18;;;;;;;9.68;2.35;;;8.40;90.60;;;;;;5066151;28;20554;-38
2021/05/05 09:15:10;;;;;;;11.07;2.20;;;8.20;90.80;;;;;;5072478;28;20143;-38
2021/05/05 09:18:07;;;;;;;10.52;2.97;;;8.20;91.30;;;;;;5068375;28;20132;-38
2021/05/05 09:20:39;;;;;;;12.02;2.90;;;8.10;91.50;;;;;;5064328;28;20048;-38
2021/05/05 09:23:10;;;;;;;13.05;2.55;;;8.10;92.30;;;;;;5044878;28;20569;-38
2021/05/05 09:25:36;;;;;;;7.80;1.85;;;8.00;92.50;;;;;;5051144;28;20045;-38
2021/05/05 09:28:14;;;;;;;11.13;3.15;;;8.10;92.80;;;;;;5065478;28;20159;-39
2021/05/05 09:30:54;;;;;;;10.68;2.92;;;8.20;92.40;;;;;;5072243;28;20051;-38
2021/05/05 09:33:33;;;;;;;19.17;8.48;;;8.70;93.00;;;;;;5078949;28;20048;-39
2021/05/05 09:36:09;;;;;;;7.80;2.60;;;8.70;91.80;;;;;;5077856;28;20052;-38
2021/05/05 09:38:50;;;;;;;16.73;3.70;;;8.70;92.10;;;;;;5065476;28;20061;-39
2021/05/05 09:41:34;;;;;;;11.98;2.97;;;8.50;91.50;;;;;;5065484;28;20056;-39
2021/05/05 09:44:04;;;;;;;16.30;3.80;;;8.70;90.90;;;;;;5065213;28;20048;-39
2021/05/05 09:46:43;;;;;;;11.23;2.90;;;8.80;90.90;;;;;;5064630;28;20088;-38
2021/05/05 09:49:21;;;;;;;12.10;3.22;;;8.60;88.80;;;;;;5065799;28;20049;-38
2021/05/05 09:52:04;;;;;;;11.27;3.03;;;8.50;90.00;;;;;;5064671;28;20074;-38
2021/05/05 09:54:35;;;;;;;10.50;2.58;;;8.60;90.40;;;;;;5065064;28;20058;-39
2021/05/05 09:57:18;;;;;;;12.50;2.92;;;9.30;89.40;;;;;;5064891;28;20056;-38
2021/05/05 10:00:03;;;;;;;9.45;2.92;;;9.40;85.60;;;;;;5064367;28;20071;-38
2021/05/05 10:02:49;;;;;;;12.60;5.28;;;9.70;82.50;;;;;;5064137;28;20082;-39
2021/05/05 10:05:20;;;;;;;7.85;2.00;;;9.60;82.50;;;;;;5073796;28;20083;-39
2021/05/05 10:08:09;;;;;;;6.68;2.47;;;9.80;82.90;;;;;;5069824;28;20064;-39
2021/05/05 10:10:43;;;;;;;6.80;1.77;;;10.00;81.80;;;;;;5083785;28;20048;-39
2021/05/05 10:13:11;;;;;;;9.45;1.88;;;10.30;80.80;;;;;;5084533;28;20094;-38
2021/05/05 10:15:39;;;;;;;6.45;2.05;;;9.80;84.70;;;;;;5064885;28;20049;-39
2021/05/05 10:18:12;;;;;;;4.90;1.20;;;8.70;86.60;;;;;;5075800;28;20052;-39
2021/05/05 10:20:43;;;;;;;4.97;1.50;;;8.30;88.00;;;;;;5069767;28;20052;-40
2021/05/05 10:23:14;;;;;;;8.25;2.03;;;8.50;90.20;;;;;;5064702;28;20068;-39
2021/05/05 10:25:48;;;;;;;6.32;2.00;;;8.70;89.20;;;;;;5064890;28;20183;-39
2021/05/05 10:28:14;;;;;;;9.93;2.40;;;9.10;88.30;;;;;;5047796;28;20070;-39
2021/05/05 10:30:42;;;;;;;9.93;2.47;;;9.90;87.40;;;;;;5074940;28;20056;-40
2021/05/05 10:33:18;;;;;;;7.78;2.00;;;10.40;84.00;;;;;;5065900;28;20158;-40
2021/05/05 10:35:44;;;;;;;11.75;2.72;;;11.10;82.30;;;;;;5070995;28;20056;-40
2021/05/05 10:38:34;;;;;;;12.02;2.78;;;11.00;78.60;;;;;;5068692;28;20061;-39
2021/05/05 10:41:13;;;;;;;12.65;2.80;;;11.20;77.80;;;;;;5056455;28;20040;-40
2021/05/05 10:43:54;;;;;;;7.88;2.15;;;11.20;76.90;;;;;;5067178;28;20404;-40
2021/05/05 10:46:32;;;;;;;9.05;3.00;;;10.60;76.10;;;;;;5078360;28;20048;-40
2021/05/05 10:49:07;;;;;;;9.13;2.80;;;10.90;78.60;;;;;;5050548;28;20152;-40
2021/05/05 10:51:45;;;;;;;8.88;2.78;;;11.30;78.30;;;;;;5053702;28;20110;-40
2021/05/05 10:54:13;;;;;;;9.77;2.58;;;10.70;75.80;;;;;;5056009;28;20060;-40
2021/05/05 10:56:44;;;;;;;9.07;2.40;;;10.70;78.30;;;;;;5068588;28;20048;-40
2021/05/05 10:59:14;;;;;;;10.23;2.70;;;10.20;78.40;;;;;;5073009;28;20051;-39
2021/05/05 11:01:48;;;;;;;10.07;2.47;;;10.30;78.90;;;;;;5077174;28;20496;-39
2021/05/05 11:04:17;;;;;;;7.88;2.05;;;10.30;76.10;;;;;;5067331;28;20052;-39
2021/05/05 11:06:48;;;;;;;10.38;2.40;;;10.50;75.20;;;;;;5066358;28;20072;-39
2021/05/05 11:09:18;;;;;;;7.57;2.17;;;10.20;77.20;;;;;;5067811;28;20110;-39
2021/05/05 11:11:46;;;;;;;10.30;2.35;;;10.20;77.90;;;;;;5068069;28;20054;-39
2021/05/05 11:14:24;;;;;;;11.27;2.53;;;10.80;79.10;;;;;;5066917;28;20075;-39
2021/05/05 11:17:03;;;;;;;12.23;2.60;;;10.80;77.30;;;;;;5066694;28;20139;-39
2021/05/05 11:19:39;;;;;;;11.15;2.67;;;11.10;74.50;;;;;;5067049;28;20774;-39
2021/05/05 11:22:27;;;;;;;9.82;2.72;;;11.50;74.40;;;;;;5084153;28;20143;-39
2021/05/05 11:24:53;;;;;;;16.80;3.47;;;11.70;73.90;;;;;;5066202;28;20121;-40
2021/05/05 11:27:49;;;;;;;15.73;3.17;;;11.80;73.20;;;;;;5067792;28;20060;-39
2021/05/05 11:30:48;;;;;;;10.32;2.83;;;11.80;72.30;;;;;;5067987;28;20451;-39
2021/05/05 11:33:14;;;;;;;11.98;2.90;;;12.00;72.70;;;;;;5050331;28;20144;-39
2021/05/05 11:35:41;;;;;;;9.90;2.65;;;12.60;70.90;;;;;;5066456;28;20048;-41
2021/05/05 11:38:20;;;;;;;10.15;2.88;;;12.20;66.40;;;;;;5065586;28;20055;-40
2021/05/05 11:40:58;;;;;;;14.35;3.65;;;12.20;67.10;;;;;;5067034;28;20474;-39
2021/05/05 11:43:26;;;;;;;12.32;2.95;;;11.80;68.70;;;;;;5067640;28;20072;-39
2021/05/05 11:45:58;;;;;;;10.32;3.13;;;12.40;68.00;;;;;;5066286;28;20056;-40
2021/05/05 11:48:32;;;;;;;13.48;3.35;;;11.70;63.60;;;;;;5067008;28;20045;-41
2021/05/05 11:51:02;;;;;;;12.25;3.42;;;11.40;65.00;;;;;;5065948;28;20504;-40
2021/05/05 11:53:30;;;;;;;15.77;3.78;;;10.70;68.60;;;;;;5067535;28;20044;-39
2021/05/05 11:55:56;;;;;;;14.30;3.58;;;10.80;70.90;;;;;;5066842;28;20163;-40
2021/05/05 11:58:24;;;;;;;17.08;3.80;;;11.20;70.70;;;;;;5066205;28;20113;-39
2021/05/05 12:00:51;;;;;;;14.60;2.72;;;11.60;66.60;;;;;;5066935;28;20155;-39
2021/05/05 12:03:23;;;;;;;9.75;2.42;;;11.30;67.20;;;;;;5066951;28;20087;-39
2021/05/05 12:05:54;;;;;;;11.88;3.20;;;11.30;66.70;;;;;;5081508;28;20048;-40
2021/05/05 12:08:27;;;;;;;15.02;3.40;;;11.30;68.20;;;;;;5061524;28;20051;-39
2021/05/05 12:11:04;;;;;;;13.40;3.33;;;12.00;68.20;;;;;;5071501;28;20087;-39
2021/05/05 12:13:40;;;;;;;13.70;3.35;;;12.40;65.40;;;;;;5065976;28;20052;-40
2021/05/05 12:16:17;;;;;;;8.77;2.60;;;12.60;64.90;;;;;;5064118;28;20171;-41
2021/05/05 12:18:49;;;;;;;10.73;2.60;;;12.60;63.90;;;;;;5068088;28;20048;-39
2021/05/05 12:21:19;;;;;;;9.13;2.38;;;12.80;66.10;;;;;;5055521;28;20063;-42
2021/05/05 12:23:50;;;;;;;10.57;2.72;;;13.10;64.40;;;;;;5067077;28;20139;-39
2021/05/05 12:26:26;;;;;;;9.30;3.83;;;12.90;62.40;;;;;;5080748;28;20052;-40
2021/05/05 12:29:00;;;;;;;10.55;2.95;;;13.40;62.50;;;;;;5081164;28;20073;-41
2021/05/05 12:31:38;;;;;;;8.05;2.90;;;13.40;61.50;;;;;;5057880;28;20039;-40
2021/05/05 12:34:07;;;;;;;13.13;3.60;;;13.30;61.00;;;;;;5066668;28;20136;-41
2021/05/05 12:36:38;;;;;;;9.75;2.65;;;13.10;59.40;;;;;;5066000;28;20076;-40
2021/05/05 12:39:13;;;;;;;11.43;3.13;;;13.70;60.00;;;;;;5065866;28;20072;-40
2021/05/05 12:41:52;;;;;;;10.50;3.08;;;13.30;58.40;;;;;;5051906;28;20079;-40
2021/05/05 12:44:33;;;;;;;16.42;3.33;;;12.80;57.20;;;;;;5076053;28;20051;-41
2021/05/05 12:47:08;;;;;;;11.13;3.10;;;13.00;58.20;;;;;;5068392;28;20044;-41
2021/05/05 12:49:42;;;;;;;12.70;3.28;;;13.20;60.60;;;;;;5064400;28;20449;-43
2021/05/05 12:52:25;;;;;;;13.75;3.25;;;12.90;58.80;;;;;;5070799;28;20605;-41
2021/05/05 12:54:51;;;;;;;16.58;5.00;;;12.50;60.60;;;;;;5066716;28;20490;-42
2021/05/05 12:57:19;;;;;;;15.15;3.60;;;12.70;61.70;;;;;;5064644;28;20052;-43
2021/05/05 12:59:50;;;;;;;14.38;3.72;;;12.60;60.40;;;;;;5062717;28;20161;-43
2021/05/05 13:02:23;;;;;;;19.30;4.03;;;11.80;59.90;;;;;;5063717;28;20066;-41
2021/05/05 13:04:52;;;;;;;12.45;3.92;;;12.40;60.00;;;;;;5059862;28;20079;-42
2021/05/05 13:07:44;;;;;;;14.38;3.28;;;13.00;59.00;;;;;;5035044;28;20057;-45
2021/05/05 13:10:21;;;;;;;13.95;3.60;;;12.60;57.70;;;;;;5055833;28;20080;-43